Gyumri, Armenia
Current Conditions -  °F | °C
As of 9:30 AM on Wednesday 22 Oct 2014 (Local Time) from UDSG Reporting Station
Clear Clear  
Wind Chill:   Ceiling: Unl
Heat Index:   Visibility: 6mi
Dew Point: -1°   Wind: 2mph
Humidity: 93%   Direction: NA
Pressure: 30.12"   Gusts: NA
Location:  40.78°N, 43.83°E
Report Text: UDSG 220430Z VRB01MPS 9999 NSC 00/M01 Q1020 R02/CLRD70 NOSIG
Loading
Personal Weather Stations






























Interactive Weather Map
Tropical Storm Tracking
New forecast layout! Learn more

10-Day Weather Forecast

Advertisements
Track Severe Weather on mobile